sensor_id;sensor_type;location;lat;lon;timestamp;temperature;humidity
7576;DHT22;3829;50.798;4.358;2023-04-21T00:01:03;7.50;99.90
7576;DHT22;3829;50.798;4.358;2023-04-21T00:03:32;7.50;99.90
7576;DHT22;3829;50.798;4.358;2023-04-21T00:06:02;7.60;99.90
7576;DHT22;3829;50.798;4.358;2023-04-21T00:08:30;7.60;99.90
7576;DHT22;3829;50.798;4.358;2023-04-21T00:10:56;7.60;99.90
7576;DHT22;3829;50.798;4.358;2023-04-21T00:13:21;7.50;99.90
7576;DHT22;3829;50.798;4.358;2023-04-21T00:15:48;7.50;99.90
7576;DHT22;3829;50.798;4.358;2023-04-21T00:18:14;7.50;99.90
7576;DHT22;3829;50.798;4.358;2023-04-21T00:20:39;7.50;99.90
7576;DHT22;3829;50.798;4.358;2023-04-21T00:23:06;7.60;99.90
7576;DHT22;3829;50.798;4.358;2023-04-21T00:25:31;7.50;99.90
7576;DHT22;3829;50.798;4.358;2023-04-21T00:27:57;7.60;99.90
7576;DHT22;3829;50.798;4.358;2023-04-21T00:30:22;7.70;99.90
7576;DHT22;3829;50.798;4.358;2023-04-21T00:32:48;7.70;99.90
7576;DHT22;3829;50.798;4.358;2023-04-21T00:35:13;7.70;99.90
7576;DHT22;3829;50.798;4.358;2023-04-21T00:37:39;7.70;99.90
7576;DHT22;3829;50.798;4.358;2023-04-21T00:40:06;7.70;99.90
7576;DHT22;3829;50.798;4.358;2023-04-21T00:42:32;7.70;99.90
7576;DHT22;3829;50.798;4.358;2023-04-21T00:44:58;7.70;99.90
7576;DHT22;3829;50.798;4.358;2023-04-21T00:47:24;7.70;99.90
7576;DHT22;3829;50.798;4.358;2023-04-21T00:49:49;7.70;99.90
7576;DHT22;3829;50.798;4.358;2023-04-21T00:52:16;7.70;99.90
7576;DHT22;3829;50.798;4.358;2023-04-21T00:54:43;7.70;99.90
7576;DHT22;3829;50.798;4.358;2023-04-21T00:57:10;7.50;99.90
7576;DHT22;3829;50.798;4.358;2023-04-21T00:59:36;7.50;99.90
7576;DHT22;3829;50.798;4.358;2023-04-21T01:02:02;7.40;99.90
7576;DHT22;3829;50.798;4.358;2023-04-21T01:04:28;7.30;99.90
7576;DHT22;3829;50.798;4.358;2023-04-21T01:07:03;7.30;99.90
7576;DHT22;3829;50.798;4.358;2023-04-21T01:09:29;7.30;99.90
7576;DHT22;3829;50.798;4.358;2023-04-21T01:12:07;7.20;99.90
7576;DHT22;3829;50.798;4.358;2023-04-21T01:14:33;7.20;99.90
7576;DHT22;3829;50.798;4.358;2023-04-21T01:16:59;7.10;99.90
7576;DHT22;3829;50.798;4.358;2023-04-21T01:19:27;7.00;99.90
7576;DHT22;3829;50.798;4.358;2023-04-21T01:21:54;7.10;99.90
7576;DHT22;3829;50.798;4.358;2023-04-21T01:24:23;7.10;99.90
7576;DHT22;3829;50.798;4.358;2023-04-21T01:26:50;7.20;99.90
7576;DHT22;3829;50.798;4.358;2023-04-21T01:29:16;7.20;99.90
7576;DHT22;3829;50.798;4.358;2023-04-21T01:31:42;7.20;99.90
7576;DHT22;3829;50.798;4.358;2023-04-21T01:34:09;7.20;99.90
7576;DHT22;3829;50.798;4.358;2023-04-21T01:36:35;7.20;99.90
7576;DHT22;3829;50.798;4.358;2023-04-21T01:39:01;7.10;99.90
7576;DHT22;3829;50.798;4.358;2023-04-21T01:41:27;7.00;99.90
7576;DHT22;3829;50.798;4.358;2023-04-21T01:43:53;7.00;99.90
7576;DHT22;3829;50.798;4.358;2023-04-21T01:46:19;7.00;99.90
7576;DHT22;3829;50.798;4.358;2023-04-21T01:48:45;7.10;99.90
7576;DHT22;3829;50.798;4.358;2023-04-21T01:51:10;7.10;99.90
7576;DHT22;3829;50.798;4.358;2023-04-21T01:53:36;7.10;99.90
7576;DHT22;3829;50.798;4.358;2023-04-21T01:56:02;7.10;99.90
7576;DHT22;3829;50.798;4.358;2023-04-21T01:58:27;7.10;99.90
7576;DHT22;3829;50.798;4.358;2023-04-21T02:00:53;7.20;99.90
7576;DHT22;3829;50.798;4.358;2023-04-21T02:03:18;7.10;99.90
7576;DHT22;3829;50.798;4.358;2023-04-21T02:05:49;7.10;99.90
7576;DHT22;3829;50.798;4.358;2023-04-21T02:08:15;7.10;99.90
7576;DHT22;3829;50.798;4.358;2023-04-21T02:10:41;7.10;99.90
7576;DHT22;3829;50.798;4.358;2023-04-21T02:13:07;7.10;99.90
7576;DHT22;3829;50.798;4.358;2023-04-21T02:15:32;7.20;99.90
7576;DHT22;3829;50.798;4.358;2023-04-21T02:17:58;7.20;99.90
7576;DHT22;3829;50.798;4.358;2023-04-21T02:20:23;7.30;99.90
7576;DHT22;3829;50.798;4.358;2023-04-21T02:22:49;7.30;99.90
7576;DHT22;3829;50.798;4.358;2023-04-21T02:25:14;7.30;99.90
7576;DHT22;3829;50.798;4.358;2023-04-21T02:27:40;7.30;99.90
7576;DHT22;3829;50.798;4.358;2023-04-21T02:30:06;7.30;99.90
7576;DHT22;3829;50.798;4.358;2023-04-21T02:32:32;7.30;99.90
7576;DHT22;3829;50.798;4.358;2023-04-21T02:34:58;7.20;99.90
7576;DHT22;3829;50.798;4.358;2023-04-21T02:37:23;7.20;99.90
7576;DHT22;3829;50.798;4.358;2023-04-21T02:39:49;7.20;99.90
7576;DHT22;3829;50.798;4.358;2023-04-21T02:42:14;7.30;99.90
7576;DHT22;3829;50.798;4.358;2023-04-21T02:44:40;7.30;99.90
7576;DHT22;3829;50.798;4.358;2023-04-21T02:47:07;7.30;99.90
7576;DHT22;3829;50.798;4.358;2023-04-21T02:49:32;7.30;99.90
7576;DHT22;3829;50.798;4.358;2023-04-21T02:51:58;7.30;99.90
7576;DHT22;3829;50.798;4.358;2023-04-21T02:54:24;7.40;99.90
7576;DHT22;3829;50.798;4.358;2023-04-21T02:56:49;7.40;99.90
7576;DHT22;3829;50.798;4.358;2023-04-21T02:59:15;7.50;99.90
7576;DHT22;3829;50.798;4.358;2023-04-21T03:01:41;7.40;99.90
7576;DHT22;3829;50.798;4.358;2023-04-21T03:04:07;7.40;99.90
7576;DHT22;3829;50.798;4.358;2023-04-21T03:06:32;7.40;99.90
7576;DHT22;3829;50.798;4.358;2023-04-21T03:09:01;7.40;99.90
7576;DHT22;3829;50.798;4.358;2023-04-21T03:11:27;7.40;99.90
7576;DHT22;3829;50.798;4.358;2023-04-21T03:13:52;7.30;99.90
7576;DHT22;3829;50.798;4.358;2023-04-21T03:16:18;7.30;99.90
7576;DHT22;3829;50.798;4.358;2023-04-21T03:18:44;7.30;99.90
7576;DHT22;3829;50.798;4.358;2023-04-21T03:21:09;7.30;99.90
7576;DHT22;3829;50.798;4.358;2023-04-21T03:23:35;7.30;99.90
7576;DHT22;3829;50.798;4.358;2023-04-21T03:26:06;7.30;99.90
7576;DHT22;3829;50.798;4.358;2023-04-21T03:28:31;7.40;99.90
7576;DHT22;3829;50.798;4.358;2023-04-21T03:30:57;7.40;99.90
7576;DHT22;3829;50.798;4.358;2023-04-21T03:33:22;7.40;99.90
7576;DHT22;3829;50.798;4.358;2023-04-21T03:35:48;7.50;99.90
7576;DHT22;3829;50.798;4.358;2023-04-21T03:38:13;7.40;99.90
7576;DHT22;3829;50.798;4.358;2023-04-21T03:40:39;7.30;99.90
7576;DHT22;3829;50.798;4.358;2023-04-21T03:43:05;7.30;99.90
7576;DHT22;3829;50.798;4.358;2023-04-21T03:45:31;7.30;99.90
7576;DHT22;3829;50.798;4.358;2023-04-21T03:47:56;7.40;99.90
7576;DHT22;3829;50.798;4.358;2023-04-21T03:50:22;7.40;99.90
7576;DHT22;3829;50.798;4.358;2023-04-21T03:52:48;7.40;99.90
7576;DHT22;3829;50.798;4.358;2023-04-21T03:55:13;7.30;99.90
7576;DHT22;3829;50.798;4.358;2023-04-21T03:57:40;7.30;99.90
7576;DHT22;3829;50.798;4.358;2023-04-21T04:00:07;7.30;99.90
7576;DHT22;3829;50.798;4.358;2023-04-21T04:02:34;7.10;99.90
7576;DHT22;3829;50.798;4.358;2023-04-21T04:05:01;7.10;99.90
7576;DHT22;3829;50.798;4.358;2023-04-21T04:07:31;7.00;99.90
7576;DHT22;3829;50.798;4.358;2023-04-21T04:09:57;7.00;99.90
7576;DHT22;3829;50.798;4.358;2023-04-21T04:12:23;7.00;99.90
7576;DHT22;3829;50.798;4.358;2023-04-21T04:14:49;7.00;99.90
7576;DHT22;3829;50.798;4.358;2023-04-21T04:17:15;7.00;99.90
7576;DHT22;3829;50.798;4.358;2023-04-21T04:19:40;6.90;99.90
7576;DHT22;3829;50.798;4.358;2023-04-21T04:22:06;6.90;99.90
7576;DHT22;3829;50.798;4.358;2023-04-21T04:24:32;6.90;99.90
7576;DHT22;3829;50.798;4.358;2023-04-21T04:26:58;7.00;99.90
7576;DHT22;3829;50.798;4.358;2023-04-21T04:29:26;7.00;99.90
7576;DHT22;3829;50.798;4.358;2023-04-21T04:31:52;7.00;99.90
7576;DHT22;3829;50.798;4.358;2023-04-21T04:34:18;7.10;99.90
7576;DHT22;3829;50.798;4.358;2023-04-21T04:36:44;7.10;99.90
7576;DHT22;3829;50.798;4.358;2023-04-21T04:39:10;7.10;99.90
7576;DHT22;3829;50.798;4.358;2023-04-21T04:41:36;7.10;99.90
7576;DHT22;3829;50.798;4.358;2023-04-21T04:44:02;7.10;99.90
7576;DHT22;3829;50.798;4.358;2023-04-21T04:46:30;7.10;99.90
7576;DHT22;3829;50.798;4.358;2023-04-21T04:48:56;7.20;99.90
7576;DHT22;3829;50.798;4.358;2023-04-21T04:51:21;7.20;99.90
7576;DHT22;3829;50.798;4.358;2023-04-21T04:53:48;7.20;99.90
7576;DHT22;3829;50.798;4.358;2023-04-21T04:56:14;7.30;99.90
7576;DHT22;3829;50.798;4.358;2023-04-21T04:58:40;7.30;99.90
7576;DHT22;3829;50.798;4.358;2023-04-21T05:01:14;7.30;99.90
7576;DHT22;3829;50.798;4.358;2023-04-21T05:03:40;7.30;99.90
7576;DHT22;3829;50.798;4.358;2023-04-21T05:06:06;7.30;99.90
7576;DHT22;3829;50.798;4.358;2023-04-21T05:08:31;7.40;99.90
7576;DHT22;3829;50.798;4.358;2023-04-21T05:10:57;7.40;99.90
7576;DHT22;3829;50.798;4.358;2023-04-21T05:13:23;7.40;99.90
7576;DHT22;3829;50.798;4.358;2023-04-21T05:15:48;7.40;99.90
7576;DHT22;3829;50.798;4.358;2023-04-21T05:18:14;7.40;99.90
7576;DHT22;3829;50.798;4.358;2023-04-21T05:20:40;7.40;99.90
7576;DHT22;3829;50.798;4.358;2023-04-21T05:23:06;7.50;99.90
7576;DHT22;3829;50.798;4.358;2023-04-21T05:25:32;7.50;99.90
7576;DHT22;3829;50.798;4.358;2023-04-21T05:27:57;7.60;99.90
7576;DHT22;3829;50.798;4.358;2023-04-21T05:30:23;7.60;99.90
7576;DHT22;3829;50.798;4.358;2023-04-21T05:32:48;7.60;99.90
7576;DHT22;3829;50.798;4.358;2023-04-21T05:35:14;7.60;99.90
7576;DHT22;3829;50.798;4.358;2023-04-21T05:37:40;7.60;99.90
7576;DHT22;3829;50.798;4.358;2023-04-21T05:40:06;7.50;99.90
7576;DHT22;3829;50.798;4.358;2023-04-21T05:42:32;7.40;99.90
7576;DHT22;3829;50.798;4.358;2023-04-21T05:44:58;7.30;99.90
7576;DHT22;3829;50.798;4.358;2023-04-21T05:47:23;7.30;99.90
7576;DHT22;3829;50.798;4.358;2023-04-21T05:49:51;7.30;99.90
7576;DHT22;3829;50.798;4.358;2023-04-21T05:52:18;7.30;99.90
7576;DHT22;3829;50.798;4.358;2023-04-21T05:54:43;7.30;99.90
7576;DHT22;3829;50.798;4.358;2023-04-21T05:57:09;7.30;99.90
7576;DHT22;3829;50.798;4.358;2023-04-21T05:59:35;7.30;99.90
7576;DHT22;3829;50.798;4.358;2023-04-21T06:02:00;7.20;99.90
7576;DHT22;3829;50.798;4.358;2023-04-21T06:04:28;7.30;99.90
7576;DHT22;3829;50.798;4.358;2023-04-21T06:06:53;7.30;99.90
7576;DHT22;3829;50.798;4.358;2023-04-21T06:09:19;7.30;99.90
7576;DHT22;3829;50.798;4.358;2023-04-21T06:11:45;7.40;99.90
7576;DHT22;3829;50.798;4.358;2023-04-21T06:14:10;7.50;99.90
7576;DHT22;3829;50.798;4.358;2023-04-21T06:16:36;7.50;99.90
7576;DHT22;3829;50.798;4.358;2023-04-21T06:19:01;7.50;99.90
7576;DHT22;3829;50.798;4.358;2023-04-21T06:21:27;7.60;99.90
7576;DHT22;3829;50.798;4.358;2023-04-21T06:23:53;7.60;99.90
7576;DHT22;3829;50.798;4.358;2023-04-21T06:26:18;7.60;99.90
7576;DHT22;3829;50.798;4.358;2023-04-21T06:28:44;7.60;99.90
7576;DHT22;3829;50.798;4.358;2023-04-21T06:31:09;7.70;99.90
7576;DHT22;3829;50.798;4.358;2023-04-21T06:33:39;7.70;99.90
7576;DHT22;3829;50.798;4.358;2023-04-21T06:36:05;7.80;99.90
7576;DHT22;3829;50.798;4.358;2023-04-21T06:38:31;7.90;99.90
7576;DHT22;3829;50.798;4.358;2023-04-21T06:40:57;8.00;99.90
7576;DHT22;3829;50.798;4.358;2023-04-21T06:43:22;8.10;99.90
7576;DHT22;3829;50.798;4.358;2023-04-21T06:45:48;8.10;99.90
7576;DHT22;3829;50.798;4.358;2023-04-21T06:48:13;8.10;99.90
7576;DHT22;3829;50.798;4.358;2023-04-21T06:50:39;8.20;99.90
7576;DHT22;3829;50.798;4.358;2023-04-21T06:53:05;8.30;99.90
7576;DHT22;3829;50.798;4.358;2023-04-21T06:55:31;8.30;99.90
7576;DHT22;3829;50.798;4.358;2023-04-21T06:57:56;8.40;99.90
7576;DHT22;3829;50.798;4.358;2023-04-21T07:00:22;8.60;99.90
7576;DHT22;3829;50.798;4.358;2023-04-21T07:02:47;8.60;99.90
7576;DHT22;3829;50.798;4.358;2023-04-21T07:05:13;8.60;99.90
7576;DHT22;3829;50.798;4.358;2023-04-21T07:07:39;8.70;99.90
7576;DHT22;3829;50.798;4.358;2023-04-21T07:10:05;8.80;99.90
7576;DHT22;3829;50.798;4.358;2023-04-21T07:12:31;8.80;99.90
7576;DHT22;3829;50.798;4.358;2023-04-21T07:14:57;9.00;99.90
7576;DHT22;3829;50.798;4.358;2023-04-21T07:17:22;9.00;99.90
7576;DHT22;3829;50.798;4.358;2023-04-21T07:19:48;9.20;99.90
7576;DHT22;3829;50.798;4.358;2023-04-21T07:22:13;9.30;99.90
7576;DHT22;3829;50.798;4.358;2023-04-21T07:24:39;9.20;99.90
7576;DHT22;3829;50.798;4.358;2023-04-21T07:27:04;9.20;99.90
7576;DHT22;3829;50.798;4.358;2023-04-21T07:29:30;9.20;99.90
7576;DHT22;3829;50.798;4.358;2023-04-21T07:31:55;9.20;99.90
7576;DHT22;3829;50.798;4.358;2023-04-21T07:34:23;9.10;99.90
7576;DHT22;3829;50.798;4.358;2023-04-21T07:36:50;9.20;99.90
7576;DHT22;3829;50.798;4.358;2023-04-21T07:39:15;9.20;99.90
7576;DHT22;3829;50.798;4.358;2023-04-21T07:41:41;9.40;99.90
7576;DHT22;3829;50.798;4.358;2023-04-21T07:44:07;9.50;99.90
7576;DHT22;3829;50.798;4.358;2023-04-21T07:46:32;9.50;99.90
7576;DHT22;3829;50.798;4.358;2023-04-21T07:48:58;9.60;99.90
7576;DHT22;3829;50.798;4.358;2023-04-21T07:51:25;9.90;99.90
7576;DHT22;3829;50.798;4.358;2023-04-21T07:53:52;10.20;99.90
7576;DHT22;3829;50.798;4.358;2023-04-21T07:56:17;10.30;99.90
7576;DHT22;3829;50.798;4.358;2023-04-21T07:58:43;10.40;99.90
7576;DHT22;3829;50.798;4.358;2023-04-21T08:01:09;10.40;99.90
7576;DHT22;3829;50.798;4.358;2023-04-21T08:03:35;10.50;99.90
7576;DHT22;3829;50.798;4.358;2023-04-21T08:06:08;10.40;99.90
7576;DHT22;3829;50.798;4.358;2023-04-21T08:08:35;10.50;99.90
7576;DHT22;3829;50.798;4.358;2023-04-21T08:11:01;10.50;99.90
7576;DHT22;3829;50.798;4.358;2023-04-21T08:13:27;10.60;99.90
7576;DHT22;3829;50.798;4.358;2023-04-21T08:15:53;10.60;99.90
7576;DHT22;3829;50.798;4.358;2023-04-21T08:18:19;10.70;99.90
7576;DHT22;3829;50.798;4.358;2023-04-21T08:20:46;10.70;99.90
7576;DHT22;3829;50.798;4.358;2023-04-21T08:23:13;10.70;99.90
7576;DHT22;3829;50.798;4.358;2023-04-21T08:25:38;10.80;99.90
7576;DHT22;3829;50.798;4.358;2023-04-21T08:28:04;10.90;99.90
7576;DHT22;3829;50.798;4.358;2023-04-21T08:30:30;11.10;99.90
7576;DHT22;3829;50.798;4.358;2023-04-21T08:32:55;11.40;99.90
7576;DHT22;3829;50.798;4.358;2023-04-21T08:35:21;11.70;99.90
7576;DHT22;3829;50.798;4.358;2023-04-21T08:37:47;11.80;99.90
7576;DHT22;3829;50.798;4.358;2023-04-21T08:40:13;11.90;99.90
7576;DHT22;3829;50.798;4.358;2023-04-21T08:42:38;12.10;99.90
7576;DHT22;3829;50.798;4.358;2023-04-21T08:45:04;12.20;99.90
7576;DHT22;3829;50.798;4.358;2023-04-21T08:47:32;12.00;99.90
7576;DHT22;3829;50.798;4.358;2023-04-21T08:49:58;12.00;99.90
7576;DHT22;3829;50.798;4.358;2023-04-21T08:52:24;12.10;99.90
7576;DHT22;3829;50.798;4.358;2023-04-21T08:54:49;12.10;99.90
7576;DHT22;3829;50.798;4.358;2023-04-21T08:57:18;12.20;99.90
7576;DHT22;3829;50.798;4.358;2023-04-21T08:59:44;12.30;99.90
7576;DHT22;3829;50.798;4.358;2023-04-21T09:02:13;12.60;99.90
7576;DHT22;3829;50.798;4.358;2023-04-21T09:04:43;12.70;99.90
7576;DHT22;3829;50.798;4.358;2023-04-21T09:07:09;12.70;99.90
7576;DHT22;3829;50.798;4.358;2023-04-21T09:12:20;13.20;99.90
7576;DHT22;3829;50.798;4.358;2023-04-21T09:14:46;13.20;99.90
7576;DHT22;3829;50.798;4.358;2023-04-21T09:17:15;13.20;99.90
7576;DHT22;3829;50.798;4.358;2023-04-21T09:19:40;13.20;99.90
7576;DHT22;3829;50.798;4.358;2023-04-21T09:22:06;13.00;99.90
7576;DHT22;3829;50.798;4.358;2023-04-21T09:24:32;12.80;99.90
7576;DHT22;3829;50.798;4.358;2023-04-21T09:26:57;12.90;99.90
7576;DHT22;3829;50.798;4.358;2023-04-21T09:29:24;13.00;99.90
7576;DHT22;3829;50.798;4.358;2023-04-21T09:31:51;13.20;99.90
7576;DHT22;3829;50.798;4.358;2023-04-21T09:34:19;13.30;99.90
7576;DHT22;3829;50.798;4.358;2023-04-21T09:36:46;13.40;99.90
7576;DHT22;3829;50.798;4.358;2023-04-21T09:39:12;13.60;99.90
7576;DHT22;3829;50.798;4.358;2023-04-21T09:41:39;13.60;99.90
7576;DHT22;3829;50.798;4.358;2023-04-21T09:44:04;13.80;99.90
7576;DHT22;3829;50.798;4.358;2023-04-21T09:46:32;13.90;99.90
7576;DHT22;3829;50.798;4.358;2023-04-21T09:48:59;14.00;99.90
7576;DHT22;3829;50.798;4.358;2023-04-21T09:51:26;14.10;99.90
7576;DHT22;3829;50.798;4.358;2023-04-21T09:53:57;14.00;99.90
7576;DHT22;3829;50.798;4.358;2023-04-21T09:56:24;14.20;99.90
7576;DHT22;3829;50.798;4.358;2023-04-21T09:58:54;14.30;99.90
7576;DHT22;3829;50.798;4.358;2023-04-21T10:01:23;14.40;99.90
7576;DHT22;3829;50.798;4.358;2023-04-21T10:03:50;14.40;99.90
7576;DHT22;3829;50.798;4.358;2023-04-21T10:06:17;14.40;99.90
7576;DHT22;3829;50.798;4.358;2023-04-21T10:08:44;14.50;99.90
7576;DHT22;3829;50.798;4.358;2023-04-21T10:11:10;14.50;99.90
7576;DHT22;3829;50.798;4.358;2023-04-21T10:13:37;14.60;99.90
7576;DHT22;3829;50.798;4.358;2023-04-21T10:16:05;14.70;99.90
7576;DHT22;3829;50.798;4.358;2023-04-21T10:18:36;14.60;99.90
7576;DHT22;3829;50.798;4.358;2023-04-21T10:21:08;14.60;99.90
7576;DHT22;3829;50.798;4.358;2023-04-21T10:23:40;14.60;99.90
7576;DHT22;3829;50.798;4.358;2023-04-21T10:26:11;14.70;99.90
7576;DHT22;3829;50.798;4.358;2023-04-21T10:28:40;14.70;99.90
7576;DHT22;3829;50.798;4.358;2023-04-21T10:31:18;14.70;99.90
7576;DHT22;3829;50.798;4.358;2023-04-21T10:36:30;14.90;99.90
7576;DHT22;3829;50.798;4.358;2023-04-21T10:38:55;14.90;99.90
7576;DHT22;3829;50.798;4.358;2023-04-21T10:41:27;15.00;99.90
7576;DHT22;3829;50.798;4.358;2023-04-21T10:43:57;15.20;99.90
7576;DHT22;3829;50.798;4.358;2023-04-21T10:46:34;15.20;99.90
7576;DHT22;3829;50.798;4.358;2023-04-21T10:49:05;15.30;99.90
7576;DHT22;3829;50.798;4.358;2023-04-21T10:51:31;15.40;99.90
7576;DHT22;3829;50.798;4.358;2023-04-21T10:53:57;15.40;99.90
7576;DHT22;3829;50.798;4.358;2023-04-21T10:56:24;15.70;99.90
7576;DHT22;3829;50.798;4.358;2023-04-21T10:58:51;15.50;99.90
7576;DHT22;3829;50.798;4.358;2023-04-21T11:01:17;15.60;99.90
7576;DHT22;3829;50.798;4.358;2023-04-21T11:03:43;15.70;99.90
7576;DHT22;3829;50.798;4.358;2023-04-21T11:06:16;15.60;99.90
7576;DHT22;3829;50.798;4.358;2023-04-21T11:08:54;15.40;99.90
7576;DHT22;3829;50.798;4.358;2023-04-21T11:11:22;15.50;99.90
7576;DHT22;3829;50.798;4.358;2023-04-21T11:13:48;15.50;99.90
7576;DHT22;3829;50.798;4.358;2023-04-21T11:16:16;15.70;99.90
7576;DHT22;3829;50.798;4.358;2023-04-21T11:18:43;15.80;99.90
7576;DHT22;3829;50.798;4.358;2023-04-21T11:21:12;15.80;99.90
7576;DHT22;3829;50.798;4.358;2023-04-21T11:23:48;15.80;99.90
7576;DHT22;3829;50.798;4.358;2023-04-21T11:26:13;15.90;99.90
7576;DHT22;3829;50.798;4.358;2023-04-21T11:28:40;16.10;99.90
7576;DHT22;3829;50.798;4.358;2023-04-21T11:31:06;16.30;99.90
7576;DHT22;3829;50.798;4.358;2023-04-21T11:33:37;16.50;99.90
7576;DHT22;3829;50.798;4.358;2023-04-21T11:36:06;16.20;99.90
7576;DHT22;3829;50.798;4.358;2023-04-21T11:38:38;16.10;99.90
7576;DHT22;3829;50.798;4.358;2023-04-21T11:41:04;16.00;99.90
7576;DHT22;3829;50.798;4.358;2023-04-21T11:43:30;15.80;99.90
7576;DHT22;3829;50.798;4.358;2023-04-21T11:46:11;15.70;99.90
7576;DHT22;3829;50.798;4.358;2023-04-21T11:48:37;15.90;99.90
7576;DHT22;3829;50.798;4.358;2023-04-21T11:51:03;16.00;99.90
7576;DHT22;3829;50.798;4.358;2023-04-21T11:53:28;16.30;99.90
7576;DHT22;3829;50.798;4.358;2023-04-21T11:55:54;16.60;99.90
7576;DHT22;3829;50.798;4.358;2023-04-21T11:58:21;16.70;99.90
7576;DHT22;3829;50.798;4.358;2023-04-21T12:00:46;16.80;99.90
7576;DHT22;3829;50.798;4.358;2023-04-21T12:03:14;16.90;99.90
7576;DHT22;3829;50.798;4.358;2023-04-21T12:05:40;16.90;99.90
7576;DHT22;3829;50.798;4.358;2023-04-21T12:08:15;16.80;99.90
7576;DHT22;3829;50.798;4.358;2023-04-21T12:10:45;16.70;99.90
7576;DHT22;3829;50.798;4.358;2023-04-21T12:13:11;16.90;99.90
7576;DHT22;3829;50.798;4.358;2023-04-21T12:15:36;16.90;99.90
7576;DHT22;3829;50.798;4.358;2023-04-21T12:18:02;16.90;99.90
7576;DHT22;3829;50.798;4.358;2023-04-21T12:20:28;16.80;99.90
7576;DHT22;3829;50.798;4.358;2023-04-21T12:22:54;17.10;99.90
7576;DHT22;3829;50.798;4.358;2023-04-21T12:25:21;17.30;99.90
7576;DHT22;3829;50.798;4.358;2023-04-21T12:27:47;17.50;99.90
7576;DHT22;3829;50.798;4.358;2023-04-21T12:30:13;17.40;99.90
7576;DHT22;3829;50.798;4.358;2023-04-21T12:32:39;17.50;99.90
7576;DHT22;3829;50.798;4.358;2023-04-21T12:35:04;17.70;99.90
7576;DHT22;3829;50.798;4.358;2023-04-21T12:37:30;17.70;99.90
7576;DHT22;3829;50.798;4.358;2023-04-21T12:39:56;17.90;99.90
7576;DHT22;3829;50.798;4.358;2023-04-21T12:42:21;18.00;99.90
7576;DHT22;3829;50.798;4.358;2023-04-21T12:44:47;18.00;99.90
7576;DHT22;3829;50.798;4.358;2023-04-21T12:47:13;17.90;99.90
7576;DHT22;3829;50.798;4.358;2023-04-21T12:49:39;18.20;99.90
7576;DHT22;3829;50.798;4.358;2023-04-21T12:52:04;17.90;99.90
7576;DHT22;3829;50.798;4.358;2023-04-21T12:54:30;17.60;99.90
7576;DHT22;3829;50.798;4.358;2023-04-21T12:56:56;17.40;99.90
7576;DHT22;3829;50.798;4.358;2023-04-21T12:59:22;17.20;99.90
7576;DHT22;3829;50.798;4.358;2023-04-21T13:01:48;17.10;99.90
7576;DHT22;3829;50.798;4.358;2023-04-21T13:04:14;17.10;99.90
7576;DHT22;3829;50.798;4.358;2023-04-21T13:06:40;16.90;99.90
7576;DHT22;3829;50.798;4.358;2023-04-21T13:09:05;16.90;99.90
7576;DHT22;3829;50.798;4.358;2023-04-21T13:11:32;17.00;99.90
7576;DHT22;3829;50.798;4.358;2023-04-21T13:13:57;17.40;99.90
7576;DHT22;3829;50.798;4.358;2023-04-21T13:16:23;17.70;99.90
7576;DHT22;3829;50.798;4.358;2023-04-21T13:18:49;18.10;99.90
7576;DHT22;3829;50.798;4.358;2023-04-21T13:21:14;18.50;99.90
7576;DHT22;3829;50.798;4.358;2023-04-21T13:23:40;18.70;99.90
7576;DHT22;3829;50.798;4.358;2023-04-21T13:26:06;18.80;99.90
7576;DHT22;3829;50.798;4.358;2023-04-21T13:28:32;19.00;99.90
7576;DHT22;3829;50.798;4.358;2023-04-21T13:30:57;19.10;99.90
7576;DHT22;3829;50.798;4.358;2023-04-21T13:33:23;19.10;99.90
7576;DHT22;3829;50.798;4.358;2023-04-21T13:35:49;19.40;99.90
7576;DHT22;3829;50.798;4.358;2023-04-21T13:38:15;20.30;99.90
7576;DHT22;3829;50.798;4.358;2023-04-21T13:40:41;20.80;99.90
7576;DHT22;3829;50.798;4.358;2023-04-21T13:43:07;20.90;99.90
7576;DHT22;3829;50.798;4.358;2023-04-21T13:45:32;20.30;99.90
7576;DHT22;3829;50.798;4.358;2023-04-21T13:47:58;19.60;99.90
7576;DHT22;3829;50.798;4.358;2023-04-21T13:50:24;19.20;99.90
7576;DHT22;3829;50.798;4.358;2023-04-21T13:52:49;19.60;99.90
7576;DHT22;3829;50.798;4.358;2023-04-21T13:55:15;19.40;99.90
7576;DHT22;3829;50.798;4.358;2023-04-21T13:57:41;19.50;99.90
7576;DHT22;3829;50.798;4.358;2023-04-21T14:00:07;19.90;99.90
7576;DHT22;3829;50.798;4.358;2023-04-21T14:02:35;20.40;99.90
7576;DHT22;3829;50.798;4.358;2023-04-21T14:05:01;20.70;99.90
7576;DHT22;3829;50.798;4.358;2023-04-21T14:07:26;21.20;99.90
7576;DHT22;3829;50.798;4.358;2023-04-21T14:09:52;21.80;99.90
7576;DHT22;3829;50.798;4.358;2023-04-21T14:12:18;21.40;99.90
7576;DHT22;3829;50.798;4.358;2023-04-21T14:14:44;21.20;99.90
7576;DHT22;3829;50.798;4.358;2023-04-21T14:17:09;21.30;99.90
7576;DHT22;3829;50.798;4.358;2023-04-21T14:19:35;20.30;99.90
7576;DHT22;3829;50.798;4.358;2023-04-21T14:22:01;19.40;99.90
7576;DHT22;3829;50.798;4.358;2023-04-21T14:24:27;19.00;99.90
7576;DHT22;3829;50.798;4.358;2023-04-21T14:26:54;19.40;99.90
7576;DHT22;3829;50.798;4.358;2023-04-21T14:29:22;20.10;99.90
7576;DHT22;3829;50.798;4.358;2023-04-21T14:31:47;21.30;99.90
7576;DHT22;3829;50.798;4.358;2023-04-21T14:34:13;22.40;99.90
7576;DHT22;3829;50.798;4.358;2023-04-21T14:36:38;22.60;99.20
7576;DHT22;3829;50.798;4.358;2023-04-21T14:39:04;22.40;99.50
7576;DHT22;3829;50.798;4.358;2023-04-21T14:41:30;22.50;99.00
7576;DHT22;3829;50.798;4.358;2023-04-21T14:43:55;21.40;98.90
7576;DHT22;3829;50.798;4.358;2023-04-21T14:46:22;21.20;99.30
7576;DHT22;3829;50.798;4.358;2023-04-21T14:48:48;21.50;99.40
7576;DHT22;3829;50.798;4.358;2023-04-21T14:51:13;21.50;99.50
7576;DHT22;3829;50.798;4.358;2023-04-21T14:53:39;21.20;99.50
7576;DHT22;3829;50.798;4.358;2023-04-21T14:56:05;20.80;99.90
7576;DHT22;3829;50.798;4.358;2023-04-21T14:58:31;20.10;99.90
7576;DHT22;3829;50.798;4.358;2023-04-21T15:00:56;20.30;99.90
7576;DHT22;3829;50.798;4.358;2023-04-21T15:03:22;20.20;99.90
7576;DHT22;3829;50.798;4.358;2023-04-21T15:05:51;19.70;99.90
7576;DHT22;3829;50.798;4.358;2023-04-21T15:08:16;20.00;99.90
7576;DHT22;3829;50.798;4.358;2023-04-21T15:10:42;20.40;99.90
7576;DHT22;3829;50.798;4.358;2023-04-21T15:13:08;19.80;99.90
7576;DHT22;3829;50.798;4.358;2023-04-21T15:15:35;19.50;99.90
7576;DHT22;3829;50.798;4.358;2023-04-21T15:18:00;18.70;99.90
7576;DHT22;3829;50.798;4.358;2023-04-21T15:20:26;18.20;99.90
7576;DHT22;3829;50.798;4.358;2023-04-21T15:22:51;18.20;99.90
7576;DHT22;3829;50.798;4.358;2023-04-21T15:25:17;17.90;99.90
7576;DHT22;3829;50.798;4.358;2023-04-21T15:27:43;17.80;99.90
7576;DHT22;3829;50.798;4.358;2023-04-21T15:30:09;17.60;99.90
7576;DHT22;3829;50.798;4.358;2023-04-21T15:32:35;17.90;99.90
7576;DHT22;3829;50.798;4.358;2023-04-21T15:35:00;18.60;99.90
7576;DHT22;3829;50.798;4.358;2023-04-21T15:37:26;18.50;99.90
7576;DHT22;3829;50.798;4.358;2023-04-21T15:39:52;19.20;99.90
7576;DHT22;3829;50.798;4.358;2023-04-21T15:42:17;18.90;99.90
7576;DHT22;3829;50.798;4.358;2023-04-21T15:44:43;18.80;99.90
7576;DHT22;3829;50.798;4.358;2023-04-21T15:47:11;18.00;99.90
7576;DHT22;3829;50.798;4.358;2023-04-21T15:49:37;17.80;99.90
7576;DHT22;3829;50.798;4.358;2023-04-21T15:52:03;17.70;99.90
7576;DHT22;3829;50.798;4.358;2023-04-21T15:54:30;17.60;99.90
7576;DHT22;3829;50.798;4.358;2023-04-21T15:56:58;17.40;99.90
7576;DHT22;3829;50.798;4.358;2023-04-21T15:59:23;17.30;99.90
7576;DHT22;3829;50.798;4.358;2023-04-21T16:01:49;17.30;99.90
7576;DHT22;3829;50.798;4.358;2023-04-21T16:04:16;17.20;99.90
7576;DHT22;3829;50.798;4.358;2023-04-21T16:06:42;17.20;99.90
7576;DHT22;3829;50.798;4.358;2023-04-21T16:09:07;17.10;99.90